createdAt,value
2023-03-04T00:03:25.432Z,-0.15
2023-03-04T00:08:31.660Z,-0.13
2023-03-04T00:13:37.584Z,-0.12
2023-03-04T00:18:43.365Z,-0.11
2023-03-04T00:23:49.685Z,-0.09
2023-03-04T00:28:56.147Z,-0.04
2023-03-04T00:34:02.145Z,-0.02
2023-03-04T00:39:08.125Z,0.02
2023-03-04T00:44:14.934Z,0.10
2023-03-04T00:49:21.228Z,0.16
2023-03-04T00:54:27.322Z,0.18
2023-03-04T00:59:33.034Z,0.20
2023-03-04T01:04:39.754Z,0.21
2023-03-04T01:09:45.878Z,0.23
2023-03-04T01:14:52.082Z,0.24
2023-03-04T01:19:57.749Z,0.21
2023-03-04T01:25:04.022Z,0.22
2023-03-04T01:30:13.459Z,0.24
2023-03-04T01:35:19.711Z,0.21
2023-03-04T01:40:25.416Z,0.17
2023-03-04T01:45:33.065Z,0.16
2023-03-04T01:50:39.033Z,0.15
2023-03-04T01:55:45.633Z,0.12
2023-03-04T02:00:51.346Z,0.10
2023-03-04T02:05:58.305Z,0.13
2023-03-04T02:11:04.320Z,0.14
2023-03-04T02:16:11.005Z,0.12
2023-03-04T02:21:23.424Z,0.12
2023-03-04T02:26:30.286Z,0.15
2023-03-04T02:31:39.125Z,0.17
2023-03-04T02:36:46.522Z,0.18
2023-03-04T02:41:55.931Z,0.21
2023-03-04T02:47:04.076Z,0.26
2023-03-04T02:52:13.354Z,0.29
2023-03-04T02:57:19.546Z,0.29
2023-03-04T03:02:28.903Z,0.31
2023-03-04T03:07:36.408Z,0.37
2023-03-04T03:12:42.374Z,0.38
2023-03-04T03:17:48.069Z,0.37
2023-03-04T03:22:54.246Z,0.41
2023-03-04T03:28:00.094Z,0.46
2023-03-04T03:33:06.308Z,0.47
2023-03-04T03:38:12.651Z,0.48
2023-03-04T03:43:18.729Z,0.54
2023-03-04T03:48:24.675Z,0.58
2023-03-04T03:53:30.741Z,0.59
2023-03-04T03:58:36.619Z,0.60
2023-03-04T04:03:42.238Z,0.66
2023-03-04T04:08:48.431Z,0.68
2023-03-04T04:13:54.841Z,0.68
2023-03-04T04:19:00.960Z,0.71
2023-03-04T04:24:07.325Z,0.77
2023-03-04T04:29:15.372Z,0.80
2023-03-04T04:34:21.604Z,0.81
2023-03-04T04:39:27.521Z,0.83
2023-03-04T04:44:33.747Z,0.88
2023-03-04T04:49:39.779Z,0.89
2023-03-04T04:54:45.661Z,0.89
2023-03-04T04:59:51.779Z,0.89
2023-03-04T05:04:57.373Z,0.93
2023-03-04T05:10:04.142Z,0.97
2023-03-04T05:15:11.803Z,0.98
2023-03-04T05:20:18.117Z,0.99
2023-03-04T05:25:24.021Z,1.04
2023-03-04T05:30:29.976Z,1.11
2023-03-04T05:35:36.472Z,1.12
2023-03-04T05:40:43.057Z,1.11
2023-03-04T05:45:51.602Z,1.12
2023-03-04T05:50:59.537Z,1.17
2023-03-04T05:56:11.177Z,1.20
2023-03-04T06:01:17.782Z,1.21
2023-03-04T06:06:23.914Z,1.23
2023-03-04T06:11:29.988Z,1.28
2023-03-04T06:16:35.973Z,1.33
2023-03-04T06:21:41.962Z,1.36
2023-03-04T06:26:47.656Z,1.35
2023-03-04T06:31:54.530Z,1.38
2023-03-04T06:37:00.892Z,1.45
2023-03-04T06:42:07.442Z,1.48
2023-03-04T06:47:13.820Z,1.48
2023-03-04T06:52:20.026Z,1.51
2023-03-04T06:57:26.190Z,1.58
2023-03-04T07:02:32.687Z,1.63
2023-03-04T07:07:38.981Z,1.64
2023-03-04T07:12:44.789Z,1.63
2023-03-04T07:17:51.361Z,1.69
2023-03-04T07:22:57.225Z,1.74
2023-03-04T07:28:03.165Z,1.76
2023-03-04T07:33:09.098Z,1.75
2023-03-04T07:38:15.016Z,1.80
2023-03-04T07:43:23.748Z,1.87
2023-03-04T07:48:30.786Z,1.91
2023-03-04T07:53:37.809Z,1.94
2023-03-04T07:58:44.256Z,1.96
2023-03-04T08:03:51.014Z,2.04
2023-03-04T08:09:01.184Z,2.13
2023-03-04T08:14:07.477Z,2.17
2023-03-04T08:19:13.996Z,2.17
2023-03-04T08:24:19.959Z,2.20
2023-03-04T08:29:27.613Z,2.26
2023-03-04T08:34:33.513Z,2.30
2023-03-04T08:39:39.421Z,2.33
2023-03-04T08:44:45.283Z,2.33
2023-03-04T08:49:52.265Z,2.38
2023-03-04T08:54:58.356Z,2.41
2023-03-04T09:00:04.744Z,2.43
2023-03-04T09:05:11.729Z,2.49
2023-03-04T09:10:17.609Z,2.63
2023-03-04T09:15:23.272Z,2.84
2023-03-04T09:20:28.834Z,2.94
2023-03-04T09:25:35.318Z,3.03
2023-03-04T09:30:41.229Z,3.11
2023-03-04T09:35:49.211Z,3.04
2023-03-04T09:40:55.659Z,2.94
2023-03-04T09:46:08.516Z,2.88
2023-03-04T09:51:22.210Z,2.86
2023-03-04T09:56:30.127Z,2.80
2023-03-04T10:01:43.740Z,2.76
2023-03-04T10:06:54.603Z,2.74
2023-03-04T10:12:01.813Z,2.76
2023-03-04T10:17:14.685Z,2.76
2023-03-04T10:22:32.119Z,2.79
2023-03-04T10:27:38.386Z,2.91
2023-03-04T10:32:47.997Z,2.99
2023-03-04T10:37:54.557Z,2.96
2023-03-04T10:43:01.573Z,2.97
2023-03-04T10:48:17.833Z,2.93
2023-03-04T10:53:41.353Z,2.90
2023-03-04T10:58:47.293Z,2.88
2023-03-04T11:03:55.927Z,2.82
2023-03-04T11:09:02.077Z,2.81
2023-03-04T11:14:17.686Z,2.80
2023-03-04T11:19:27.291Z,2.75
2023-03-04T11:24:37.108Z,2.75
2023-03-04T11:29:49.177Z,2.82
2023-03-04T11:35:09.615Z,2.78
2023-03-04T11:40:18.310Z,2.69
2023-03-04T11:45:32.866Z,2.66
2023-03-04T11:50:48.908Z,2.65
2023-03-04T11:56:11.433Z,2.61
2023-03-04T12:01:27.237Z,2.56
2023-03-04T12:06:41.718Z,2.59
2023-03-04T12:11:58.459Z,2.59
2023-03-04T12:17:31.357Z,2.55
2023-03-04T12:22:46.098Z,2.58
2023-03-04T12:28:01.507Z,2.69
2023-03-04T12:33:18.150Z,2.87
2023-03-04T12:38:43.820Z,3.28
2023-03-04T12:44:00.200Z,3.66
2023-03-04T12:49:23.415Z,3.97
2023-03-04T12:54:36.175Z,4.49
2023-03-04T12:59:51.439Z,4.94
2023-03-04T13:05:05.032Z,5.22
2023-03-04T13:10:13.875Z,5.35
2023-03-04T13:15:30.836Z,5.28
2023-03-04T13:20:39.574Z,5.11
2023-03-04T13:25:46.814Z,4.91
2023-03-04T13:31:18.250Z,4.65
2023-03-04T13:36:57.353Z,4.28
2023-03-04T13:42:24.883Z,3.41
2023-03-04T13:47:43.377Z,2.61
2023-03-04T13:52:52.015Z,2.18
2023-03-04T13:57:58.684Z,2.08
2023-03-04T14:03:20.314Z,2.18
2023-03-04T14:08:27.853Z,2.39
2023-03-04T14:13:34.044Z,2.53
2023-03-04T14:18:40.404Z,2.90
2023-03-04T14:23:46.187Z,3.21
2023-03-04T14:28:57.522Z,3.41
2023-03-04T14:34:04.471Z,3.68
2023-03-04T14:39:18.052Z,3.96
2023-03-04T14:44:36.256Z,4.00
2023-03-04T14:49:43.296Z,3.77
2023-03-04T14:55:02.339Z,3.61
2023-03-04T15:00:26.372Z,3.46
2023-03-04T15:05:35.915Z,3.34
2023-03-04T15:10:42.026Z,3.20
2023-03-04T15:15:50.001Z,3.08
2023-03-04T15:21:01.229Z,2.99
2023-03-04T15:26:12.125Z,2.89
2023-03-04T15:31:20.544Z,2.69
2023-03-04T15:36:26.721Z,2.39
2023-03-04T15:41:32.946Z,2.11
2023-03-04T15:46:38.893Z,1.84
2023-03-04T15:51:44.945Z,1.59
2023-03-04T15:56:51.981Z,1.39
2023-03-04T16:02:01.111Z,1.21
2023-03-04T16:07:07.135Z,1.05
2023-03-04T16:12:15.214Z,0.89
2023-03-04T16:17:21.349Z,0.73
2023-03-04T16:22:30.156Z,0.55
2023-03-04T16:27:37.288Z,0.34
2023-03-04T16:32:43.546Z,0.17
2023-03-04T16:37:51.226Z,0.03
2023-03-04T16:42:58.067Z,-0.09
2023-03-04T16:48:04.417Z,-0.20
2023-03-04T16:53:23.747Z,-0.29
2023-03-04T16:58:29.816Z,-0.37
2023-03-04T17:03:35.556Z,-0.42
2023-03-04T17:08:41.854Z,-0.46
2023-03-04T17:13:48.780Z,-0.51
2023-03-04T17:18:55.203Z,-0.55
2023-03-04T17:24:03.237Z,-0.59
2023-03-04T17:29:09.267Z,-0.64
2023-03-04T17:34:15.744Z,-0.69
2023-03-04T17:39:21.907Z,-0.77
2023-03-04T17:44:27.730Z,-0.85
2023-03-04T17:49:36.585Z,-0.97
2023-03-04T17:54:42.634Z,-1.09
2023-03-04T17:59:49.471Z,-1.25
2023-03-04T18:04:55.343Z,-1.42
2023-03-04T18:10:01.299Z,-1.57
2023-03-04T18:15:08.726Z,-1.72
2023-03-04T18:20:15.252Z,-1.84
2023-03-04T18:25:21.465Z,-1.93
2023-03-04T18:30:27.646Z,-2.04
2023-03-04T18:35:33.677Z,-2.17
2023-03-04T18:40:42.173Z,-2.30
2023-03-04T18:45:48.452Z,-2.40
2023-03-04T18:50:58.285Z,-2.49
2023-03-04T18:56:12.250Z,-2.59
2023-03-04T19:01:22.378Z,-2.69
2023-03-04T19:06:29.608Z,-2.79
2023-03-04T19:11:35.503Z,-2.92
2023-03-04T19:16:41.782Z,-3.06
2023-03-04T19:21:48.170Z,-3.17
2023-03-04T19:26:54.865Z,-3.20
2023-03-04T19:32:01.068Z,-3.25
2023-03-04T19:37:07.001Z,-3.30
2023-03-04T19:42:13.656Z,-3.36
2023-03-04T19:47:19.824Z,-3.43
2023-03-04T19:52:25.914Z,-3.52
2023-03-04T19:57:32.535Z,-3.63
2023-03-04T20:02:39.052Z,-3.73
2023-03-04T20:07:45.346Z,-3.83
2023-03-04T20:12:52.930Z,-3.92
2023-03-04T20:17:59.032Z,-4.01
2023-03-04T20:23:05.687Z,-4.09
2023-03-04T20:28:11.796Z,-4.17
2023-03-04T20:33:17.683Z,-4.19
2023-03-04T20:38:23.913Z,-4.22
2023-03-04T20:43:31.267Z,-4.24
2023-03-04T20:48:37.040Z,-4.27
2023-03-04T20:53:42.924Z,-4.32
2023-03-04T20:58:49.081Z,-4.36
2023-03-04T21:03:55.038Z,-4.38
2023-03-04T21:09:05.589Z,-4.39
2023-03-04T21:14:14.592Z,-4.41
2023-03-04T21:19:22.400Z,-4.40
2023-03-04T21:24:30.086Z,-4.37
2023-03-04T21:29:36.068Z,-4.39
2023-03-04T21:34:45.867Z,-4.43
2023-03-04T21:39:51.653Z,-4.44
2023-03-04T21:44:57.499Z,-4.47
2023-03-04T21:50:03.607Z,-4.49
2023-03-04T21:55:10.420Z,-4.51
2023-03-04T22:00:17.786Z,-4.55
2023-03-04T22:05:23.652Z,-4.57
2023-03-04T22:10:29.280Z,-4.60
2023-03-04T22:15:35.111Z,-4.60
2023-03-04T22:20:43.529Z,-4.59
2023-03-04T22:25:49.562Z,-4.60
2023-03-04T22:30:56.227Z,-4.60
2023-03-04T22:36:05.157Z,-4.62
2023-03-04T22:41:17.900Z,-4.64
2023-03-04T22:46:26.860Z,-4.64
2023-03-04T22:51:32.999Z,-4.65
2023-03-04T22:56:39.246Z,-4.66
2023-03-04T23:01:45.267Z,-4.66
2023-03-04T23:06:51.616Z,-4.68
2023-03-04T23:11:57.573Z,-4.70
2023-03-04T23:17:04.172Z,-4.70
2023-03-04T23:22:10.096Z,-4.70
2023-03-04T23:27:16.041Z,-4.69
2023-03-04T23:32:21.933Z,-4.68
2023-03-04T23:37:28.033Z,-4.65
2023-03-04T23:42:33.652Z,-4.64
2023-03-04T23:47:39.598Z,-4.64
2023-03-04T23:52:45.915Z,-4.66
2023-03-04T23:57:51.785Z,-4.67
